Time;durP1;ratioP1;P1;durP2;ratioP2;P2;SDS_P1;SDS_P2;PMS_P1;PMS_P2;Temp;Humidity;BMP_temperature;BMP_pressure;BME280_temperature;BME280_humidity;BME280_pressure;Samples;Min_cycle;Max_cycle;Signal;HPM_P1;HPM_P2
2024/01/11 00:02:23;;;;;;;26.43;13.20;;;-2.50;93.90;;;;;;5104113;28;20073;-35
2024/01/11 00:04:49;;;;;;;22.40;12.93;;;-2.50;94.00;;;;;;5104352;28;20108;-35
2024/01/11 00:07:17;;;;;;;21.47;12.90;;;-2.50;94.00;;;;;;5102704;28;20203;-36
2024/01/11 00:09:43;;;;;;;22.97;12.40;;;-2.60;94.10;;;;;;5104387;28;20057;-40
2024/01/11 00:12:09;;;;;;;23.37;11.77;;;-2.60;94.10;;;;;;5103328;28;20831;-34
2024/01/11 00:14:36;;;;;;;24.10;13.43;;;-2.60;94.20;;;;;;5102121;28;20027;-35
2024/01/11 00:17:02;;;;;;;20.47;12.03;;;-2.60;94.20;;;;;;5102077;28;20034;-35
2024/01/11 00:19:27;;;;;;;18.00;10.90;;;-2.70;94.20;;;;;;5103117;28;20020;-35
2024/01/11 00:21:53;;;;;;;18.17;10.77;;;-2.70;94.30;;;;;;5102340;28;20506;-36
2024/01/11 00:24:19;;;;;;;24.17;12.17;;;-2.70;94.30;;;;;;5102811;28;20311;-36
2024/01/11 00:26:45;;;;;;;19.03;10.67;;;-2.70;94.40;;;;;;5103705;28;20557;-35
2024/01/11 00:29:13;;;;;;;19.87;11.13;;;-2.70;94.40;;;;;;5102093;28;20045;-35
2024/01/11 00:31:39;;;;;;;19.53;10.80;;;-2.80;94.40;;;;;;5102591;28;20103;-34
2024/01/11 00:34:05;;;;;;;24.27;12.40;;;-2.80;94.40;;;;;;5102694;28;20848;-34
2024/01/11 00:36:32;;;;;;;21.80;12.30;;;-2.80;94.40;;;;;;5102635;28;20028;-35
2024/01/11 00:38:58;;;;;;;20.33;12.80;;;-2.80;94.60;;;;;;5101069;28;20039;-36
2024/01/11 00:41:25;;;;;;;20.67;10.87;;;-2.80;94.60;;;;;;5100574;28;20323;-34
2024/01/11 00:43:50;;;;;;;20.63;11.57;;;-2.90;94.60;;;;;;5102694;28;20032;-35
2024/01/11 00:46:16;;;;;;;22.10;12.00;;;-2.90;94.70;;;;;;5102398;28;20417;-35
2024/01/11 00:48:42;;;;;;;22.27;11.13;;;-2.90;94.80;;;;;;5083590;28;20047;-35
2024/01/11 00:51:07;;;;;;;18.03;10.57;;;-2.90;94.90;;;;;;5102968;28;20127;-34
2024/01/11 00:53:33;;;;;;;19.27;10.13;;;-2.90;94.90;;;;;;5102769;28;20080;-34
2024/01/11 00:56:00;;;;;;;21.07;11.97;;;-2.90;94.90;;;;;;5101493;28;20023;-34
2024/01/11 00:58:26;;;;;;;17.67;9.87;;;-3.00;94.90;;;;;;5102246;28;20038;-35
2024/01/11 01:00:55;;;;;;;17.33;9.20;;;-3.00;94.90;;;;;;5101418;28;20028;-35
2024/01/11 01:03:21;;;;;;;19.60;10.40;;;-3.00;95.00;;;;;;5101553;28;20024;-34
2024/01/11 01:05:51;;;;;;;18.97;10.30;;;-3.10;95.00;;;;;;5102235;28;20139;-35
2024/01/11 01:08:17;;;;;;;17.70;10.20;;;-3.10;95.00;;;;;;5102046;28;20079;-34
2024/01/11 01:10:43;;;;;;;20.97;11.60;;;-3.10;95.30;;;;;;5102267;28;20107;-35
2024/01/11 01:13:08;;;;;;;19.30;9.87;;;-3.10;95.20;;;;;;5101988;28;20474;-35
2024/01/11 01:15:34;;;;;;;16.13;9.97;;;-3.10;95.20;;;;;;5102727;28;20024;-39
2024/01/11 01:17:59;;;;;;;15.47;9.57;;;-3.20;95.20;;;;;;5100944;28;20057;-35
2024/01/11 01:20:25;;;;;;;14.93;8.67;;;-3.10;95.30;;;;;;5101571;28;20035;-34
2024/01/11 01:22:51;;;;;;;13.60;8.60;;;-3.20;95.50;;;;;;5098873;28;20043;-34
2024/01/11 01:25:16;;;;;;;18.70;10.57;;;-3.20;95.20;;;;;;5101174;28;20027;-35
2024/01/11 01:27:42;;;;;;;17.87;10.40;;;-3.20;95.30;;;;;;5100499;28;20148;-35
2024/01/11 01:30:08;;;;;;;16.30;9.60;;;-3.20;95.30;;;;;;5100995;28;20114;-35
2024/01/11 01:32:34;;;;;;;18.30;10.77;;;-3.30;95.40;;;;;;5099652;28;20020;-33
2024/01/11 01:35:00;;;;;;;18.77;9.70;;;-3.30;95.60;;;;;;5100082;28;20034;-35
2024/01/11 01:37:25;;;;;;;18.97;9.60;;;-3.30;95.50;;;;;;5100086;28;20028;-35
2024/01/11 01:39:51;;;;;;;19.00;10.30;;;-3.30;95.50;;;;;;5097684;28;20680;-34
2024/01/11 01:42:16;;;;;;;18.13;8.70;;;-3.30;95.60;;;;;;5099411;28;20723;-35
2024/01/11 01:44:42;;;;;;;14.10;8.27;;;-3.30;95.60;;;;;;5099404;28;20877;-33
2024/01/11 01:47:10;;;;;;;14.57;8.67;;;-3.40;95.60;;;;;;5100605;28;20081;-34
2024/01/11 01:49:36;;;;;;;19.50;10.20;;;-3.40;95.60;;;;;;5102223;28;20035;-34
2024/01/11 01:52:03;;;;;;;20.27;10.93;;;-3.40;95.60;;;;;;5100875;28;20133;-34
2024/01/11 01:54:30;;;;;;;21.00;11.23;;;-3.40;95.70;;;;;;5099214;28;20036;-34
2024/01/11 01:56:56;;;;;;;21.30;12.17;;;-3.50;95.90;;;;;;5100995;28;20032;-34
2024/01/11 01:59:25;;;;;;;23.33;11.97;;;-3.50;96.10;;;;;;5100717;28;20023;-35
2024/01/11 02:01:52;;;;;;;17.57;10.80;;;-3.50;96.10;;;;;;5101159;28;20637;-34
2024/01/11 02:04:18;;;;;;;20.57;11.13;;;-3.50;96.20;;;;;;5098985;28;20035;-37
2024/01/11 02:06:46;;;;;;;22.17;10.87;;;-3.50;96.30;;;;;;5099950;28;20047;-34
2024/01/11 02:09:13;;;;;;;20.40;11.57;;;-3.50;96.30;;;;;;5099455;28;20071;-35
2024/01/11 02:11:41;;;;;;;21.60;12.20;;;-3.60;96.40;;;;;;5100339;28;20030;-35
2024/01/11 02:14:07;;;;;;;20.27;10.13;;;-3.60;96.50;;;;;;5095108;28;20128;-34
2024/01/11 02:16:34;;;;;;;19.53;11.93;;;-3.60;96.50;;;;;;5096001;28;20024;-35
2024/01/11 02:19:00;;;;;;;22.30;11.47;;;-3.60;96.70;;;;;;5099283;28;20158;-34
2024/01/11 02:21:27;;;;;;;20.87;11.90;;;-3.60;96.70;;;;;;5099117;28;20482;-34
2024/01/11 02:24:03;;;;;;;21.00;12.53;;;-3.60;96.90;;;;;;5099486;28;20028;-34
2024/01/11 02:26:29;;;;;;;19.93;12.20;;;-3.60;97.10;;;;;;5100205;28;20036;-35
2024/01/11 02:28:55;;;;;;;20.40;11.87;;;-3.70;97.30;;;;;;5098836;28;20035;-36
2024/01/11 02:31:20;;;;;;;18.60;10.90;;;-3.60;97.30;;;;;;5100188;28;20031;-36
2024/01/11 02:33:47;;;;;;;21.53;12.03;;;-3.70;97.30;;;;;;5100327;28;20062;-34
2024/01/11 02:36:13;;;;;;;22.27;13.00;;;-3.70;97.30;;;;;;5100178;28;20039;-35
2024/01/11 02:38:41;;;;;;;21.80;11.70;;;-3.70;97.40;;;;;;5100811;28;20103;-34
2024/01/11 02:41:08;;;;;;;27.97;13.13;;;-3.70;97.50;;;;;;5099777;28;20031;-34
2024/01/11 02:43:35;;;;;;;20.40;11.47;;;-3.70;97.60;;;;;;5100087;28;20031;-34
2024/01/11 02:46:02;;;;;;;24.20;13.33;;;-3.80;97.70;;;;;;5099246;28;20038;-35
2024/01/11 02:48:29;;;;;;;20.40;12.50;;;-3.80;97.80;;;;;;5098686;28;20134;-34
2024/01/11 02:50:58;;;;;;;20.47;11.23;;;-3.80;97.80;;;;;;5099125;28;20040;-34
2024/01/11 02:53:24;;;;;;;18.07;10.10;;;-3.80;97.90;;;;;;5099019;28;20027;-34
2024/01/11 02:55:50;;;;;;;19.17;10.77;;;-3.80;97.90;;;;;;5099398;28;20027;-36
2024/01/11 02:58:16;;;;;;;16.87;10.17;;;-3.80;97.90;;;;;;5100582;28;20061;-35
2024/01/11 03:00:42;;;;;;;20.00;11.07;;;-3.90;97.90;;;;;;5100431;28;20490;-36
2024/01/11 03:03:07;;;;;;;21.90;11.97;;;-3.80;97.90;;;;;;5099753;28;20024;-35
2024/01/11 03:05:33;;;;;;;17.40;9.97;;;-3.90;98.20;;;;;;5100337;28;20035;-41
2024/01/11 03:08:00;;;;;;;16.93;9.63;;;-3.90;98.00;;;;;;5097692;28;20371;-35
2024/01/11 03:10:26;;;;;;;16.67;9.57;;;-3.90;98.00;;;;;;5099583;28;20031;-35
2024/01/11 03:12:52;;;;;;;15.63;9.00;;;-3.90;98.00;;;;;;5099388;28;20398;-35
2024/01/11 03:15:17;;;;;;;17.87;10.03;;;-3.90;98.00;;;;;;5080493;28;20153;-34
2024/01/11 03:17:43;;;;;;;16.07;9.33;;;-3.90;98.00;;;;;;5099164;28;20016;-34
2024/01/11 03:20:10;;;;;;;18.03;10.53;;;-4.00;98.00;;;;;;5097730;28;20043;-34
2024/01/11 03:22:36;;;;;;;20.90;12.00;;;-4.00;98.40;;;;;;5094816;28;20443;-36
2024/01/11 03:25:02;;;;;;;22.63;11.47;;;-4.00;98.40;;;;;;5098487;28;20028;-34
2024/01/11 03:27:28;;;;;;;21.00;11.93;;;-4.00;98.40;;;;;;5099389;28;20019;-35
2024/01/11 03:29:55;;;;;;;19.33;11.37;;;-4.00;98.50;;;;;;5099143;28;20092;-37
2024/01/11 03:32:20;;;;;;;19.67;11.30;;;-4.00;98.60;;;;;;5100003;28;20032;-35
2024/01/11 03:34:46;;;;;;;23.67;12.60;;;-4.00;98.70;;;;;;5101041;28;20382;-35
2024/01/11 03:37:11;;;;;;;22.50;11.80;;;-4.00;98.60;;;;;;5099324;28;20024;-37
2024/01/11 03:39:37;;;;;;;23.83;12.77;;;-4.10;98.60;;;;;;5099466;28;20034;-36
2024/01/11 03:42:06;;;;;;;25.03;13.30;;;-4.10;98.90;;;;;;5098797;28;20246;-34
2024/01/11 03:44:31;;;;;;;19.70;11.97;;;-4.10;99.00;;;;;;5098772;28;20036;-34
2024/01/11 03:46:57;;;;;;;26.63;14.00;;;-4.10;99.00;;;;;;5098882;28;20016;-34
2024/01/11 03:49:23;;;;;;;23.70;12.77;;;-4.10;99.10;;;;;;5099734;28;20035;-34
2024/01/11 03:51:49;;;;;;;27.03;12.80;;;-4.10;99.20;;;;;;5098186;28;20043;-35
2024/01/11 03:54:15;;;;;;;26.00;13.60;;;-4.20;99.20;;;;;;5098804;28;20027;-33
2024/01/11 03:56:44;;;;;;;23.73;12.60;;;-4.20;99.30;;;;;;5099094;28;20023;-36
2024/01/11 03:59:10;;;;;;;20.33;11.13;;;-4.20;99.40;;;;;;5097284;28;20433;-35
2024/01/11 04:01:43;;;;;;;24.30;13.00;;;-4.20;99.40;;;;;;5098735;28;20046;-35
2024/01/11 04:04:10;;;;;;;18.33;9.47;;;-4.10;99.40;;;;;;5099125;28;20036;-34
2024/01/11 04:06:39;;;;;;;16.93;9.77;;;-4.20;99.40;;;;;;5099090;28;20044;-34
2024/01/11 04:09:05;;;;;;;24.47;11.77;;;-4.20;99.40;;;;;;5097693;28;20549;-35
2024/01/11 04:11:30;;;;;;;23.77;11.90;;;-4.10;99.50;;;;;;5100203;28;20110;-35
2024/01/11 04:13:56;;;;;;;23.47;11.77;;;-4.20;99.60;;;;;;5097736;28;20028;-35
2024/01/11 04:16:23;;;;;;;21.60;12.73;;;-4.20;99.60;;;;;;5098861;28;20475;-35
2024/01/11 04:18:48;;;;;;;20.83;11.77;;;-4.20;99.80;;;;;;5098567;28;20454;-35
2024/01/11 04:21:25;;;;;;;27.67;13.00;;;-4.20;99.80;;;;;;5096935;28;20027;-36
2024/01/11 04:23:52;;;;;;;24.13;12.93;;;-4.20;99.90;;;;;;5098475;28;20020;-35
2024/01/11 04:26:18;;;;;;;25.40;13.47;;;-4.20;99.90;;;;;;5098469;28;20160;-34
2024/01/11 04:28:46;;;;;;;24.20;13.97;;;-4.20;99.90;;;;;;5097426;28;20035;-36
2024/01/11 04:31:14;;;;;;;24.60;14.17;;;-4.30;99.90;;;;;;5098164;28;20444;-35
2024/01/11 04:33:46;;;;;;;26.07;14.43;;;-4.30;99.90;;;;;;5099148;28;20039;-34
2024/01/11 04:36:12;;;;;;;26.33;15.13;;;-4.30;99.90;;;;;;5102697;28;20035;-35
2024/01/11 04:38:38;;;;;;;25.70;14.23;;;-4.30;99.90;;;;;;5103148;28;20019;-34
2024/01/11 04:41:11;;;;;;;24.53;13.80;;;-4.30;99.90;;;;;;5102856;28;20107;-35
2024/01/11 04:43:39;;;;;;;30.83;16.53;;;-4.40;99.90;;;;;;5102652;28;20034;-35
2024/01/11 04:46:24;;;;;;;25.63;14.40;;;-4.30;99.90;;;;;;5102099;28;20223;-34
2024/01/11 04:48:53;;;;;;;25.77;13.53;;;-4.40;99.90;;;;;;5100978;28;20046;-34
2024/01/11 04:51:19;;;;;;;27.30;14.97;;;-4.40;99.90;;;;;;5102080;28;20111;-34
2024/01/11 04:53:48;;;;;;;27.50;15.47;;;-4.40;99.90;;;;;;5101409;28;20036;-35
2024/01/11 04:56:15;;;;;;;30.63;16.23;;;-4.40;99.90;;;;;;5100969;28;20768;-35
2024/01/11 04:58:43;;;;;;;25.47;14.23;;;-4.40;99.90;;;;;;5102303;28;20051;-35
2024/01/11 05:01:15;;;;;;;23.47;13.77;;;-4.40;99.90;;;;;;5101673;28;20541;-34
2024/01/11 05:03:45;;;;;;;;;;;-4.40;99.90;;;;;;5084482;28;20077;-35
2024/01/11 05:06:21;;;;;;;27.77;14.70;;;-4.40;99.90;;;;;;5101396;28;20453;-35
2024/01/11 05:08:49;;;;;;;29.70;14.90;;;-4.40;99.90;;;;;;5101237;28;20038;-34
2024/01/11 05:11:19;;;;;;;22.80;12.57;;;-4.50;99.90;;;;;;5098234;28;20106;-35
2024/01/11 05:13:47;;;;;;;24.30;13.43;;;-4.50;99.90;;;;;;5101117;28;20032;-34
2024/01/11 05:16:31;;;;;;;19.53;11.63;;;-4.50;99.90;;;;;;5101388;28;20023;-34
2024/01/11 05:18:58;;;;;;;23.13;13.43;;;-4.50;99.90;;;;;;5101490;28;20531;-34
2024/01/11 05:21:24;;;;;;;23.30;13.00;;;-4.50;99.90;;;;;;5101011;28;20470;-34
2024/01/11 05:23:50;;;;;;;21.70;11.60;;;-4.50;99.90;;;;;;5100535;28;20327;-36
2024/01/11 05:26:17;;;;;;;21.87;12.83;;;-4.60;99.90;;;;;;5101201;28;20138;-36
2024/01/11 05:28:42;;;;;;;24.67;14.03;;;-4.50;99.90;;;;;;5101674;28;20027;-35
2024/01/11 05:31:12;;;;;;;28.97;15.43;;;-4.60;99.90;;;;;;5100962;28;20035;-33
2024/01/11 05:33:39;;;;;;;24.27;13.17;;;-4.60;99.90;;;;;;5101041;28;20015;-34
2024/01/11 05:36:04;;;;;;;24.50;13.50;;;-4.60;99.90;;;;;;5100534;28;20046;-36
2024/01/11 05:38:31;;;;;;;21.97;12.83;;;-4.60;99.90;;;;;;5100809;28;20494;-34
2024/01/11 05:40:57;;;;;;;19.57;11.13;;;-4.60;99.90;;;;;;5099339;28;20031;-34
2024/01/11 05:43:23;;;;;;;19.53;11.73;;;-4.60;99.90;;;;;;5101155;28;20032;-35
2024/01/11 05:45:49;;;;;;;23.37;12.47;;;-4.60;99.90;;;;;;5081223;28;20193;-35
2024/01/11 05:48:16;;;;;;;23.77;12.43;;;-4.60;99.90;;;;;;5080331;28;20044;-35
2024/01/11 05:50:42;;;;;;;17.83;10.67;;;-4.60;99.90;;;;;;5101097;28;20032;-35
2024/01/11 05:53:08;;;;;;;22.07;11.03;;;-4.60;99.90;;;;;;5100363;28;20078;-35
2024/01/11 05:55:34;;;;;;;17.70;10.03;;;-4.60;99.90;;;;;;5101318;28;20453;-35
2024/01/11 05:58:02;;;;;;;20.07;11.63;;;-4.60;99.90;;;;;;5100860;28;20023;-35
2024/01/11 06:00:30;;;;;;;21.67;11.83;;;-4.60;99.90;;;;;;5100087;28;20027;-36
2024/01/11 06:02:56;;;;;;;22.03;12.67;;;-4.60;99.90;;;;;;5100867;28;20022;-34
2024/01/11 06:05:22;;;;;;;20.90;11.33;;;-4.60;99.90;;;;;;5101446;28;20027;-35
2024/01/11 06:07:47;;;;;;;21.23;11.93;;;-4.60;99.90;;;;;;5100609;28;20113;-36
2024/01/11 06:10:14;;;;;;;24.73;12.10;;;-4.60;99.90;;;;;;5100718;28;20507;-35
2024/01/11 06:12:41;;;;;;;24.40;13.20;;;-4.60;99.90;;;;;;5081285;28;20019;-36
2024/01/11 06:15:09;;;;;;;23.27;12.87;;;-4.70;99.90;;;;;;5090640;28;20028;-36
2024/01/11 06:17:35;;;;;;;20.47;11.37;;;-4.70;99.90;;;;;;5101006;28;20078;-34
2024/01/11 06:20:01;;;;;;;19.17;11.33;;;-4.60;99.90;;;;;;5100352;28;20447;-34
2024/01/11 06:22:26;;;;;;;24.57;13.37;;;-4.70;99.90;;;;;;5100589;28;20039;-35
2024/01/11 06:24:52;;;;;;;23.53;14.07;;;-4.70;99.90;;;;;;5100553;28;20023;-35
2024/01/11 06:27:17;;;;;;;19.63;11.97;;;-4.70;99.90;;;;;;5079364;28;20023;-34
2024/01/11 06:29:43;;;;;;;28.17;16.27;;;-4.70;99.90;;;;;;5100758;28;20036;-35
2024/01/11 06:32:10;;;;;;;33.10;18.07;;;-4.70;99.90;;;;;;5098662;28;20070;-36
2024/01/11 06:34:36;;;;;;;32.80;17.87;;;-4.70;99.90;;;;;;5098562;28;20084;-35
2024/01/11 06:37:02;;;;;;;32.30;18.30;;;-4.60;99.90;;;;;;5098674;28;20040;-35
2024/01/11 06:39:29;;;;;;;27.40;16.17;;;-4.60;99.90;;;;;;5100399;28;20534;-36
2024/01/11 06:41:55;;;;;;;31.87;17.87;;;-4.60;99.90;;;;;;5098263;28;20608;-34
2024/01/11 06:44:21;;;;;;;29.93;17.13;;;-4.60;99.90;;;;;;5082693;28;20023;-34
2024/01/11 06:46:47;;;;;;;30.30;17.03;;;-4.60;99.90;;;;;;5099982;28;20088;-43
2024/01/11 06:49:13;;;;;;;27.33;15.30;;;-4.60;99.90;;;;;;5100248;28;20140;-35
2024/01/11 06:51:39;;;;;;;24.83;13.57;;;-4.60;99.90;;;;;;5101435;28;20028;-36
2024/01/11 06:54:04;;;;;;;26.47;14.57;;;-4.60;99.90;;;;;;5100025;28;20032;-37
2024/01/11 06:56:31;;;;;;;25.17;14.07;;;-4.60;99.90;;;;;;5099956;28;20031;-36
2024/01/11 06:58:57;;;;;;;22.60;12.87;;;-4.60;99.90;;;;;;5097507;28;20024;-35
2024/01/11 07:01:23;;;;;;;23.40;13.23;;;-4.60;99.90;;;;;;5095353;28;20481;-35
2024/01/11 07:03:49;;;;;;;28.93;17.43;;;-4.60;99.90;;;;;;5100334;28;20031;-36
2024/01/11 07:06:15;;;;;;;30.63;17.73;;;-4.60;99.90;;;;;;5099058;28;20368;-38
2024/01/11 07:08:41;;;;;;;30.07;16.67;;;-4.60;99.90;;;;;;5099058;28;20027;-35
2024/01/11 07:11:07;;;;;;;31.03;17.47;;;-4.60;99.90;;;;;;5098920;28;20020;-37
2024/01/11 07:13:33;;;;;;;32.83;16.60;;;-4.60;99.90;;;;;;5099129;28;20027;-35
2024/01/11 07:16:00;;;;;;;32.13;17.50;;;-4.60;99.90;;;;;;5092834;28;20024;-35
2024/01/11 07:18:26;;;;;;;28.43;16.40;;;-4.60;99.90;;;;;;5095759;28;20391;-35
2024/01/11 07:20:58;;;;;;;24.70;14.90;;;-4.60;99.90;;;;;;5099228;28;20024;-36
2024/01/11 07:23:24;;;;;;;24.13;14.07;;;-4.70;99.90;;;;;;5097667;28;20062;-35
2024/01/11 07:25:50;;;;;;;21.90;13.07;;;-4.70;99.90;;;;;;5096169;28;20123;-38
2024/01/11 07:28:17;;;;;;;23.37;13.07;;;-4.70;99.90;;;;;;5094033;28;20169;-35
2024/01/11 07:30:43;;;;;;;22.93;13.33;;;-4.70;99.90;;;;;;5096313;28;20027;-35
2024/01/11 07:33:09;;;;;;;20.37;12.03;;;-4.70;99.90;;;;;;5097388;28;20024;-34
2024/01/11 07:35:34;;;;;;;19.40;12.17;;;-4.70;99.90;;;;;;5096787;28;20114;-35
2024/01/11 07:38:00;;;;;;;22.37;12.37;;;-4.70;99.90;;;;;;5096097;28;20118;-35
2024/01/11 07:40:26;;;;;;;19.60;10.97;;;-4.70;99.90;;;;;;5099020;28;20469;-35
2024/01/11 07:42:58;;;;;;;19.97;12.13;;;-4.80;99.90;;;;;;5099205;28;20035;-37
2024/01/11 07:45:24;;;;;;;20.07;11.30;;;-4.70;99.90;;;;;;5097624;28;20541;-36
2024/01/11 07:47:50;;;;;;;21.30;12.37;;;-4.80;99.90;;;;;;5099581;28;20038;-37
2024/01/11 07:50:17;;;;;;;22.60;13.93;;;-4.80;99.90;;;;;;5098358;28;20027;-40
2024/01/11 07:52:43;;;;;;;22.13;12.10;;;-4.80;99.90;;;;;;5099227;28;20059;-36
2024/01/11 07:55:10;;;;;;;24.90;14.27;;;-4.80;99.90;;;;;;5094245;28;20114;-36
2024/01/11 07:57:40;;;;;;;26.03;16.30;;;-4.90;99.90;;;;;;5096061;28;20444;-36
2024/01/11 08:00:06;;;;;;;29.80;16.93;;;-4.90;99.90;;;;;;5094869;28;20030;-34
2024/01/11 08:02:33;;;;;;;28.63;17.17;;;-4.90;99.90;;;;;;5090704;28;20119;-34
2024/01/11 08:04:59;;;;;;;28.70;16.37;;;-4.90;99.90;;;;;;5096101;28;20028;-36
2024/01/11 08:07:25;;;;;;;26.27;15.90;;;-4.80;99.90;;;;;;5100034;28;20085;-37
2024/01/11 08:09:52;;;;;;;31.43;18.13;;;-4.80;99.90;;;;;;5103859;28;20124;-34
2024/01/11 08:12:18;;;;;;;32.67;18.40;;;-4.80;99.90;;;;;;5102972;28;20059;-34
2024/01/11 08:14:46;;;;;;;32.70;18.30;;;-4.80;99.90;;;;;;5103489;28;20127;-35
2024/01/11 08:17:13;;;;;;;37.70;20.03;;;-4.80;99.90;;;;;;5103441;28;20020;-36
2024/01/11 08:19:39;;;;;;;40.47;21.43;;;-4.80;99.90;;;;;;5102947;28;20028;-37
2024/01/11 08:22:05;;;;;;;37.27;20.63;;;-4.90;99.90;;;;;;5103011;28;20027;-35
2024/01/11 08:24:31;;;;;;;32.53;18.93;;;-4.80;99.90;;;;;;5085847;28;20100;-36
2024/01/11 08:26:57;;;;;;;32.60;18.30;;;-4.80;99.90;;;;;;5102043;28;20493;-33
2024/01/11 08:29:23;;;;;;;33.37;18.43;;;-4.80;99.90;;;;;;5103248;28;20048;-35
2024/01/11 08:31:50;;;;;;;34.13;20.87;;;-4.80;99.90;;;;;;5103492;28;20462;-34
2024/01/11 08:34:17;;;;;;;37.23;21.13;;;-4.70;99.90;;;;;;5100814;28;20497;-34
2024/01/11 08:36:43;;;;;;;36.13;22.07;;;-4.70;99.90;;;;;;5102410;28;20035;-34
2024/01/11 08:39:13;;;;;;;37.57;22.30;;;-4.70;99.90;;;;;;5102487;28;20024;-33
2024/01/11 08:41:38;;;;;;;35.17;22.10;;;-4.70;99.90;;;;;;5102091;28;20593;-36
2024/01/11 08:44:07;;;;;;;43.33;22.53;;;-4.70;99.90;;;;;;5100685;28;20035;-35
2024/01/11 08:46:33;;;;;;;38.40;21.80;;;-4.70;99.90;;;;;;5101876;28;20020;-35
2024/01/11 08:49:01;;;;;;;35.60;20.87;;;-4.70;99.90;;;;;;5101135;28;20080;-35
2024/01/11 08:51:27;;;;;;;35.93;20.57;;;-4.60;99.90;;;;;;5101964;28;20047;-35
2024/01/11 08:53:53;;;;;;;40.67;22.60;;;-4.60;99.90;;;;;;5100916;28;20114;-35
2024/01/11 08:56:18;;;;;;;36.63;20.40;;;-4.50;99.90;;;;;;5082604;28;20040;-35
2024/01/11 08:58:44;;;;;;;34.77;19.70;;;-4.50;99.90;;;;;;5102818;28;20040;-35
2024/01/11 09:01:11;;;;;;;34.53;18.80;;;-4.40;99.90;;;;;;5101231;28;20565;-36
2024/01/11 09:03:36;;;;;;;34.80;20.03;;;-4.40;99.90;;;;;;5101524;28;20027;-34
2024/01/11 09:06:03;;;;;;;32.73;19.10;;;-4.30;99.90;;;;;;5101833;28;20026;-34
2024/01/11 09:08:31;;;;;;;34.70;20.60;;;-4.20;99.90;;;;;;5101308;28;20300;-34
2024/01/11 09:10:59;;;;;;;34.53;19.30;;;-4.20;99.90;;;;;;5101244;28;20633;-34
2024/01/11 09:13:27;;;;;;;31.87;17.80;;;-4.20;99.90;;;;;;5102100;28;20038;-34
2024/01/11 09:15:53;;;;;;;32.70;17.93;;;-4.10;99.90;;;;;;5101226;28;20689;-34
2024/01/11 09:18:19;;;;;;;27.97;16.23;;;-4.10;99.90;;;;;;5101014;28;20027;-34
2024/01/11 09:20:45;;;;;;;26.37;16.33;;;-4.10;99.90;;;;;;5100304;28;20035;-34
2024/01/11 09:23:11;;;;;;;27.53;16.27;;;-4.00;99.90;;;;;;5101092;28;20039;-34
2024/01/11 09:25:37;;;;;;;27.37;15.93;;;-4.00;99.90;;;;;;5101876;28;20093;-35
2024/01/11 09:28:03;;;;;;;29.27;15.07;;;-3.90;99.90;;;;;;5101217;28;20028;-35
2024/01/11 09:30:29;;;;;;;34.40;20.13;;;-3.80;99.90;;;;;;5101299;28;20055;-34
2024/01/11 09:32:56;;;;;;;33.23;19.83;;;-3.80;99.90;;;;;;5100715;28;20080;-35
2024/01/11 09:35:23;;;;;;;41.60;21.50;;;-3.70;99.90;;;;;;5100078;28;20028;-34
2024/01/11 09:37:52;;;;;;;32.40;18.73;;;-3.70;99.90;;;;;;5098763;28;20024;-35
2024/01/11 09:40:18;;;;;;;35.50;20.27;;;-3.70;99.90;;;;;;5097953;28;20035;-35
2024/01/11 09:42:44;;;;;;;35.23;20.50;;;-3.60;99.90;;;;;;5099576;28;20533;-35
2024/01/11 09:45:13;;;;;;;36.87;20.93;;;-3.60;99.90;;;;;;5099441;28;20135;-36
2024/01/11 09:47:39;;;;;;;39.53;21.83;;;-3.50;99.90;;;;;;5100677;28;20086;-34
2024/01/11 09:50:06;;;;;;;33.03;18.53;;;-3.40;99.90;;;;;;5100043;28;20939;-34
2024/01/11 09:52:32;;;;;;;39.93;21.23;;;-3.40;99.90;;;;;;5101964;28;20132;-41
2024/01/11 09:55:01;;;;;;;32.03;19.17;;;-3.30;99.90;;;;;;5101044;28;20027;-33
2024/01/11 09:57:34;;;;;;;43.67;24.23;;;-3.20;99.90;;;;;;5102149;28;20080;-34
2024/01/11 10:00:07;;;;;;;36.73;19.70;;;-3.10;99.90;;;;;;5101166;28;20058;-35
2024/01/11 10:02:33;;;;;;;29.55;17.58;;;-3.10;99.90;;;;;;5101392;28;20032;-35
2024/01/11 10:05:01;;;;;;;29.67;16.53;;;-3.00;99.90;;;;;;5100219;28;20696;-40
2024/01/11 10:07:29;;;;;;;27.13;16.27;;;-3.00;99.90;;;;;;5101265;28;20054;-43
2024/01/11 10:09:55;;;;;;;35.47;22.03;;;-2.90;99.90;;;;;;5100021;28;20058;-33
2024/01/11 10:12:24;;;;;;;32.57;19.83;;;-2.80;99.90;;;;;;5100791;28;20023;-33
2024/01/11 10:14:51;;;;;;;35.33;19.77;;;-2.80;99.90;;;;;;5100230;28;20038;-35
2024/01/11 10:17:17;;;;;;;38.00;22.20;;;-2.70;99.90;;;;;;5101090;28;20075;-34
2024/01/11 10:19:43;;;;;;;37.83;21.27;;;-2.70;99.90;;;;;;5100343;28;20070;-34
2024/01/11 10:22:12;;;;;;;42.70;23.90;;;-2.60;99.90;;;;;;5100393;28;20533;-34
2024/01/11 10:24:40;;;;;;;42.93;25.33;;;-2.50;99.90;;;;;;5100307;28;20055;-34
2024/01/11 10:27:08;;;;;;;37.20;21.43;;;-2.50;99.90;;;;;;5098817;28;20023;-34
2024/01/11 10:29:36;;;;;;;39.23;22.17;;;-2.40;99.90;;;;;;5100904;28;20039;-34
2024/01/11 10:32:03;;;;;;;36.50;20.93;;;-2.40;99.90;;;;;;5098180;28;20698;-34
2024/01/11 10:34:29;;;;;;;36.63;20.90;;;-2.30;99.90;;;;;;5099666;28;20040;-36
2024/01/11 10:36:54;;;;;;;34.47;19.90;;;-2.30;99.90;;;;;;5099670;28;20015;-35
2024/01/11 10:39:28;;;;;;;33.57;18.87;;;-2.20;99.90;;;;;;5099354;28;20027;-34
2024/01/11 10:42:15;;;;;;;32.67;18.60;;;-2.20;99.90;;;;;;5099280;28;20024;-34
2024/01/11 10:44:46;;;;;;;31.80;17.57;;;-2.20;99.90;;;;;;5099547;28;20475;-34
2024/01/11 10:47:14;;;;;;;28.87;17.03;;;-2.10;99.90;;;;;;5099542;28;20037;-35
2024/01/11 10:49:43;;;;;;;27.57;16.40;;;-2.10;99.90;;;;;;5100528;28;20032;-34
2024/01/11 10:52:12;;;;;;;27.50;15.67;;;-2.00;99.90;;;;;;5099618;28;20051;-34
2024/01/11 10:54:39;;;;;;;24.17;13.80;;;-2.00;99.90;;;;;;5100383;28;20035;-36
2024/01/11 10:57:07;;;;;;;24.60;13.40;;;-1.90;99.90;;;;;;5100071;28;20508;-34
2024/01/11 10:59:39;;;;;;;21.87;12.00;;;-1.90;99.90;;;;;;5100327;28;20706;-33
2024/01/11 11:02:12;;;;;;;24.17;12.33;;;-1.80;99.90;;;;;;5099161;28;20024;-34
2024/01/11 11:04:38;;;;;;;;;;;-1.70;99.90;;;;;;5100191;28;20031;-34
2024/01/11 11:07:07;;;;;;;22.33;11.30;;;-1.60;99.90;;;;;;5098099;28;19931;-44
2024/01/11 11:09:35;;;;;;;19.27;10.27;;;-1.50;99.90;;;;;;5100176;28;20051;-35
2024/01/11 11:12:00;;;;;;;20.73;10.33;;;-1.50;99.90;;;;;;5099507;28;20034;-35
2024/01/11 11:14:28;;;;;;;21.53;11.40;;;-1.40;99.90;;;;;;5099398;28;20375;-42
2024/01/11 11:16:54;;;;;;;21.27;10.73;;;-1.40;99.90;;;;;;5099859;28;20015;-35
2024/01/11 11:19:20;;;;;;;21.87;11.23;;;-1.30;99.90;;;;;;5099895;28;20073;-34
2024/01/11 11:21:48;;;;;;;21.73;10.43;;;-1.20;99.90;;;;;;5098938;28;20020;-35
2024/01/11 11:24:16;;;;;;;20.60;10.43;;;-1.20;99.90;;;;;;5099926;28;20489;-34
2024/01/11 11:26:42;;;;;;;23.27;9.80;;;-1.10;99.90;;;;;;5099822;28;20127;-34
2024/01/11 11:29:10;;;;;;;19.40;9.50;;;-1.00;99.90;;;;;;5097489;28;20122;-35
2024/01/11 11:31:47;;;;;;;19.03;9.40;;;-1.00;99.90;;;;;;5099484;28;20363;-35
2024/01/11 11:34:14;;;;;;;17.77;9.03;;;-0.90;99.90;;;;;;5099317;28;20031;-35
2024/01/11 11:36:42;;;;;;;18.17;8.83;;;-0.80;99.90;;;;;;5100012;28;20024;-34
2024/01/11 11:39:13;;;;;;;16.23;8.37;;;-0.80;99.90;;;;;;5099621;28;20028;-35
2024/01/11 11:41:39;;;;;;;20.80;9.70;;;-0.70;99.90;;;;;;5099128;28;20551;-35
2024/01/11 11:44:06;;;;;;;20.03;10.03;;;-0.70;99.90;;;;;;5096715;28;20019;-35
2024/01/11 11:46:33;;;;;;;17.20;9.50;;;-0.60;99.90;;;;;;5099420;28;20023;-34
2024/01/11 11:48:59;;;;;;;21.43;10.20;;;-0.60;99.90;;;;;;5098374;28;20538;-34
2024/01/11 11:51:26;;;;;;;19.37;9.57;;;-0.50;99.90;;;;;;5099343;28;20019;-34
2024/01/11 11:53:52;;;;;;;19.37;9.77;;;-0.50;99.90;;;;;;5098966;28;20027;-34
2024/01/11 11:56:19;;;;;;;24.47;12.17;;;-0.40;99.90;;;;;;5098730;28;20120;-34
2024/01/11 11:58:46;;;;;;;23.73;11.67;;;-0.40;99.90;;;;;;5099004;28;20467;-35
2024/01/11 12:01:17;;;;;;;19.10;10.10;;;-0.30;99.90;;;;;;5099272;28;20024;-37
2024/01/11 12:03:48;;;;;;;22.58;11.02;;;-0.30;99.90;;;;;;5098816;28;20070;-34
2024/01/11 12:06:16;;;;;;;23.90;12.03;;;-0.20;99.90;;;;;;5097927;28;20063;-34
2024/01/11 12:08:43;;;;;;;19.55;9.68;;;-0.20;99.90;;;;;;5098451;28;20888;-34
2024/01/11 12:11:09;;;;;;;25.58;12.77;;;-0.10;99.90;;;;;;5098093;28;20073;-34
2024/01/11 12:13:35;;;;;;;20.35;10.45;;;-0.10;99.90;;;;;;5098630;28;20573;-34
2024/01/11 12:16:02;;;;;;;20.43;10.83;;;0.00;99.90;;;;;;5098812;28;20023;-35
2024/01/11 12:18:27;;;;;;;17.48;9.93;;;0.00;99.90;;;;;;5099081;28;20383;-34
2024/01/11 12:20:53;;;;;;;20.53;9.83;;;0.00;99.90;;;;;;5098885;28;20023;-34
2024/01/11 12:23:19;;;;;;;18.98;9.13;;;0.00;99.90;;;;;;5097434;28;20027;-37
2024/01/11 12:25:45;;;;;;;20.08;9.48;;;0.10;99.90;;;;;;5098689;28;20488;-34
2024/01/11 12:28:11;;;;;;;15.93;8.97;;;0.20;99.90;;;;;;5098430;28;20049;-35